sensor_id;sensor_type;location;lat;lon;timestamp;P1;durP1;ratioP1;P2;durP2;ratioP2
30539;SDS011;17321;46.312;4.776;2023-11-19T00:00:29;14.77;;;9.10;;
30539;SDS011;17321;46.312;4.776;2023-11-19T00:02:55;20.83;;;10.05;;
30539;SDS011;17321;46.312;4.776;2023-11-19T00:05:21;23.00;;;9.90;;
30539;SDS011;17321;46.312;4.776;2023-11-19T00:07:47;17.90;;;10.55;;
30539;SDS011;17321;46.312;4.776;2023-11-19T00:10:14;18.05;;;10.30;;
30539;SDS011;17321;46.312;4.776;2023-11-19T00:12:44;17.98;;;9.48;;
30539;SDS011;17321;46.312;4.776;2023-11-19T00:15:10;17.25;;;9.63;;
30539;SDS011;17321;46.312;4.776;2023-11-19T00:17:37;19.73;;;8.93;;
30539;SDS011;17321;46.312;4.776;2023-11-19T00:20:06;16.67;;;9.30;;
30539;SDS011;17321;46.312;4.776;2023-11-19T00:22:32;15.82;;;9.82;;
30539;SDS011;17321;46.312;4.776;2023-11-19T00:24:59;17.27;;;9.45;;
30539;SDS011;17321;46.312;4.776;2023-11-19T00:27:25;16.27;;;9.30;;
30539;SDS011;17321;46.312;4.776;2023-11-19T00:29:51;17.92;;;9.57;;
30539;SDS011;17321;46.312;4.776;2023-11-19T00:32:17;14.07;;;8.57;;
30539;SDS011;17321;46.312;4.776;2023-11-19T00:34:46;14.48;;;9.23;;
30539;SDS011;17321;46.312;4.776;2023-11-19T00:39:38;17.17;;;8.95;;
30539;SDS011;17321;46.312;4.776;2023-11-19T00:42:04;15.68;;;8.95;;
30539;SDS011;17321;46.312;4.776;2023-11-19T00:44:30;14.00;;;8.60;;
30539;SDS011;17321;46.312;4.776;2023-11-19T00:46:56;14.65;;;9.43;;
30539;SDS011;17321;46.312;4.776;2023-11-19T00:49:23;15.40;;;9.48;;
30539;SDS011;17321;46.312;4.776;2023-11-19T00:51:49;15.52;;;8.95;;
30539;SDS011;17321;46.312;4.776;2023-11-19T00:54:15;15.63;;;9.15;;
30539;SDS011;17321;46.312;4.776;2023-11-19T00:56:41;17.23;;;8.70;;
30539;SDS011;17321;46.312;4.776;2023-11-19T00:59:07;23.75;;;9.32;;
30539;SDS011;17321;46.312;4.776;2023-11-19T01:01:33;16.42;;;10.27;;
30539;SDS011;17321;46.312;4.776;2023-11-19T01:03:59;17.90;;;10.07;;
30539;SDS011;17321;46.312;4.776;2023-11-19T01:06:31;19.88;;;10.00;;
30539;SDS011;17321;46.312;4.776;2023-11-19T01:08:57;16.38;;;10.00;;
30539;SDS011;17321;46.312;4.776;2023-11-19T01:11:24;16.88;;;9.68;;
30539;SDS011;17321;46.312;4.776;2023-11-19T01:13:50;22.30;;;10.10;;
30539;SDS011;17321;46.312;4.776;2023-11-19T01:16:16;16.58;;;9.35;;
30539;SDS011;17321;46.312;4.776;2023-11-19T01:18:43;17.95;;;9.80;;
30539;SDS011;17321;46.312;4.776;2023-11-19T01:21:09;14.70;;;9.25;;
30539;SDS011;17321;46.312;4.776;2023-11-19T01:23:35;18.45;;;9.38;;
30539;SDS011;17321;46.312;4.776;2023-11-19T01:26:02;17.98;;;9.52;;
30539;SDS011;17321;46.312;4.776;2023-11-19T01:28:30;23.65;;;10.00;;
30539;SDS011;17321;46.312;4.776;2023-11-19T01:30:56;17.77;;;9.38;;
30539;SDS011;17321;46.312;4.776;2023-11-19T01:33:22;23.15;;;9.13;;
30539;SDS011;17321;46.312;4.776;2023-11-19T01:35:48;13.77;;;9.13;;
30539;SDS011;17321;46.312;4.776;2023-11-19T01:38:14;17.77;;;9.48;;
30539;SDS011;17321;46.312;4.776;2023-11-19T01:40:40;17.70;;;9.32;;
30539;SDS011;17321;46.312;4.776;2023-11-19T01:43:06;19.30;;;9.10;;
30539;SDS011;17321;46.312;4.776;2023-11-19T01:45:32;16.45;;;9.23;;
30539;SDS011;17321;46.312;4.776;2023-11-19T01:48:00;21.45;;;9.13;;
30539;SDS011;17321;46.312;4.776;2023-11-19T01:50:31;13.25;;;8.60;;
30539;SDS011;17321;46.312;4.776;2023-11-19T01:52:57;14.85;;;8.65;;
30539;SDS011;17321;46.312;4.776;2023-11-19T01:55:23;15.93;;;9.25;;
30539;SDS011;17321;46.312;4.776;2023-11-19T01:57:50;15.52;;;8.82;;
30539;SDS011;17321;46.312;4.776;2023-11-19T02:00:16;17.77;;;9.40;;
30539;SDS011;17321;46.312;4.776;2023-11-19T02:02:43;19.70;;;9.13;;
30539;SDS011;17321;46.312;4.776;2023-11-19T02:05:10;17.00;;;9.70;;
30539;SDS011;17321;46.312;4.776;2023-11-19T02:07:37;20.77;;;9.67;;
30539;SDS011;17321;46.312;4.776;2023-11-19T02:10:03;19.38;;;8.70;;
30539;SDS011;17321;46.312;4.776;2023-11-19T02:12:30;14.32;;;9.25;;
30539;SDS011;17321;46.312;4.776;2023-11-19T02:15:00;14.27;;;8.35;;
30539;SDS011;17321;46.312;4.776;2023-11-19T02:17:28;19.27;;;9.43;;
30539;SDS011;17321;46.312;4.776;2023-11-19T02:19:56;24.77;;;10.35;;
30539;SDS011;17321;46.312;4.776;2023-11-19T02:22:22;18.98;;;9.20;;
30539;SDS011;17321;46.312;4.776;2023-11-19T02:24:49;15.50;;;9.13;;
30539;SDS011;17321;46.312;4.776;2023-11-19T02:27:26;17.60;;;9.40;;
30539;SDS011;17321;46.312;4.776;2023-11-19T02:29:55;16.80;;;9.45;;
30539;SDS011;17321;46.312;4.776;2023-11-19T02:32:22;15.88;;;9.18;;
30539;SDS011;17321;46.312;4.776;2023-11-19T02:34:48;13.77;;;8.65;;
30539;SDS011;17321;46.312;4.776;2023-11-19T02:37:14;14.35;;;9.05;;
30539;SDS011;17321;46.312;4.776;2023-11-19T02:39:40;12.60;;;7.55;;
30539;SDS011;17321;46.312;4.776;2023-11-19T02:42:07;16.95;;;9.00;;
30539;SDS011;17321;46.312;4.776;2023-11-19T02:44:33;16.38;;;8.23;;
30539;SDS011;17321;46.312;4.776;2023-11-19T02:46:59;14.07;;;8.27;;
30539;SDS011;17321;46.312;4.776;2023-11-19T02:49:25;18.95;;;8.25;;
30539;SDS011;17321;46.312;4.776;2023-11-19T02:51:52;14.23;;;8.73;;
30539;SDS011;17321;46.312;4.776;2023-11-19T02:54:17;25.88;;;9.07;;
30539;SDS011;17321;46.312;4.776;2023-11-19T02:56:44;17.55;;;8.98;;
30539;SDS011;17321;46.312;4.776;2023-11-19T02:59:13;14.88;;;8.38;;
30539;SDS011;17321;46.312;4.776;2023-11-19T03:01:52;17.80;;;8.85;;
30539;SDS011;17321;46.312;4.776;2023-11-19T03:04:18;18.13;;;8.93;;
30539;SDS011;17321;46.312;4.776;2023-11-19T03:06:48;14.13;;;8.65;;
30539;SDS011;17321;46.312;4.776;2023-11-19T03:09:14;16.58;;;8.02;;
30539;SDS011;17321;46.312;4.776;2023-11-19T03:11:40;13.05;;;8.43;;
30539;SDS011;17321;46.312;4.776;2023-11-19T03:14:06;13.35;;;8.60;;
30539;SDS011;17321;46.312;4.776;2023-11-19T03:16:32;13.95;;;8.35;;
30539;SDS011;17321;46.312;4.776;2023-11-19T03:18:58;15.30;;;8.15;;
30539;SDS011;17321;46.312;4.776;2023-11-19T03:21:28;14.35;;;8.85;;
30539;SDS011;17321;46.312;4.776;2023-11-19T03:23:54;18.25;;;9.00;;
30539;SDS011;17321;46.312;4.776;2023-11-19T03:26:21;11.52;;;8.20;;
30539;SDS011;17321;46.312;4.776;2023-11-19T03:28:47;13.88;;;8.43;;
30539;SDS011;17321;46.312;4.776;2023-11-19T03:31:13;14.35;;;8.35;;
30539;SDS011;17321;46.312;4.776;2023-11-19T03:33:39;14.73;;;9.25;;
30539;SDS011;17321;46.312;4.776;2023-11-19T03:36:05;13.63;;;8.18;;
30539;SDS011;17321;46.312;4.776;2023-11-19T03:38:32;15.45;;;9.07;;
30539;SDS011;17321;46.312;4.776;2023-11-19T03:40:58;16.27;;;8.90;;
30539;SDS011;17321;46.312;4.776;2023-11-19T03:43:24;11.30;;;8.25;;
30539;SDS011;17321;46.312;4.776;2023-11-19T03:45:50;12.55;;;8.27;;
30539;SDS011;17321;46.312;4.776;2023-11-19T03:48:16;15.68;;;9.15;;
30539;SDS011;17321;46.312;4.776;2023-11-19T03:50:42;14.15;;;9.15;;
30539;SDS011;17321;46.312;4.776;2023-11-19T03:53:08;13.32;;;8.63;;
30539;SDS011;17321;46.312;4.776;2023-11-19T03:55:34;18.50;;;9.07;;
30539;SDS011;17321;46.312;4.776;2023-11-19T03:58:00;17.08;;;8.73;;
30539;SDS011;17321;46.312;4.776;2023-11-19T04:00:26;14.00;;;9.07;;
30539;SDS011;17321;46.312;4.776;2023-11-19T04:02:52;13.27;;;8.65;;
30539;SDS011;17321;46.312;4.776;2023-11-19T04:05:18;17.98;;;9.75;;
30539;SDS011;17321;46.312;4.776;2023-11-19T04:07:44;14.27;;;8.63;;
30539;SDS011;17321;46.312;4.776;2023-11-19T04:10:10;18.85;;;9.07;;
30539;SDS011;17321;46.312;4.776;2023-11-19T04:12:36;17.27;;;9.80;;
30539;SDS011;17321;46.312;4.776;2023-11-19T04:15:03;13.02;;;9.10;;
30539;SDS011;17321;46.312;4.776;2023-11-19T04:17:29;13.75;;;8.32;;
30539;SDS011;17321;46.312;4.776;2023-11-19T04:19:55;14.60;;;8.25;;
30539;SDS011;17321;46.312;4.776;2023-11-19T04:22:21;16.05;;;8.90;;
30539;SDS011;17321;46.312;4.776;2023-11-19T04:24:47;20.98;;;8.88;;
30539;SDS011;17321;46.312;4.776;2023-11-19T04:27:13;15.45;;;9.57;;
30539;SDS011;17321;46.312;4.776;2023-11-19T04:29:39;22.40;;;10.32;;
30539;SDS011;17321;46.312;4.776;2023-11-19T04:32:06;16.00;;;9.15;;
30539;SDS011;17321;46.312;4.776;2023-11-19T04:34:32;18.23;;;8.60;;
30539;SDS011;17321;46.312;4.776;2023-11-19T04:36:58;12.10;;;7.97;;
30539;SDS011;17321;46.312;4.776;2023-11-19T04:39:28;16.83;;;9.55;;
30539;SDS011;17321;46.312;4.776;2023-11-19T04:41:54;18.45;;;8.55;;
30539;SDS011;17321;46.312;4.776;2023-11-19T04:44:20;15.45;;;8.80;;
30539;SDS011;17321;46.312;4.776;2023-11-19T04:46:47;12.93;;;8.15;;
30539;SDS011;17321;46.312;4.776;2023-11-19T04:49:13;15.27;;;8.77;;
30539;SDS011;17321;46.312;4.776;2023-11-19T04:51:42;13.07;;;8.38;;
30539;SDS011;17321;46.312;4.776;2023-11-19T04:56:35;13.15;;;8.10;;
30539;SDS011;17321;46.312;4.776;2023-11-19T04:59:04;15.35;;;8.18;;
30539;SDS011;17321;46.312;4.776;2023-11-19T05:01:31;14.45;;;8.73;;
30539;SDS011;17321;46.312;4.776;2023-11-19T05:03:57;12.38;;;8.32;;
30539;SDS011;17321;46.312;4.776;2023-11-19T05:06:27;15.63;;;8.50;;
30539;SDS011;17321;46.312;4.776;2023-11-19T05:08:54;15.32;;;8.35;;
30539;SDS011;17321;46.312;4.776;2023-11-19T05:11:20;13.80;;;8.70;;
30539;SDS011;17321;46.312;4.776;2023-11-19T05:13:46;12.60;;;8.68;;
30539;SDS011;17321;46.312;4.776;2023-11-19T05:16:12;13.45;;;8.05;;
30539;SDS011;17321;46.312;4.776;2023-11-19T05:18:42;21.02;;;8.75;;
30539;SDS011;17321;46.312;4.776;2023-11-19T05:21:08;9.70;;;7.53;;
30539;SDS011;17321;46.312;4.776;2023-11-19T05:23:34;16.80;;;8.48;;
30539;SDS011;17321;46.312;4.776;2023-11-19T05:26:01;11.95;;;7.97;;
30539;SDS011;17321;46.312;4.776;2023-11-19T05:28:27;17.98;;;8.45;;
30539;SDS011;17321;46.312;4.776;2023-11-19T05:30:53;16.85;;;7.90;;
30539;SDS011;17321;46.312;4.776;2023-11-19T05:33:19;17.23;;;8.93;;
30539;SDS011;17321;46.312;4.776;2023-11-19T05:35:45;17.02;;;8.48;;
30539;SDS011;17321;46.312;4.776;2023-11-19T05:38:11;18.20;;;8.27;;
30539;SDS011;17321;46.312;4.776;2023-11-19T05:40:37;12.02;;;7.70;;
30539;SDS011;17321;46.312;4.776;2023-11-19T05:43:04;12.13;;;7.35;;
30539;SDS011;17321;46.312;4.776;2023-11-19T05:45:30;10.90;;;6.68;;
30539;SDS011;17321;46.312;4.776;2023-11-19T05:47:56;14.90;;;7.88;;
30539;SDS011;17321;46.312;4.776;2023-11-19T05:50:22;12.45;;;7.93;;
30539;SDS011;17321;46.312;4.776;2023-11-19T05:52:48;15.05;;;8.00;;
30539;SDS011;17321;46.312;4.776;2023-11-19T05:55:15;13.18;;;7.65;;
30539;SDS011;17321;46.312;4.776;2023-11-19T05:57:41;12.05;;;7.40;;
30539;SDS011;17321;46.312;4.776;2023-11-19T06:00:07;13.80;;;7.57;;
30539;SDS011;17321;46.312;4.776;2023-11-19T06:02:37;15.10;;;7.07;;
30539;SDS011;17321;46.312;4.776;2023-11-19T06:05:04;14.77;;;7.40;;
30539;SDS011;17321;46.312;4.776;2023-11-19T06:07:33;12.13;;;8.25;;
30539;SDS011;17321;46.312;4.776;2023-11-19T06:10:00;13.50;;;7.85;;
30539;SDS011;17321;46.312;4.776;2023-11-19T06:12:26;11.32;;;7.65;;
30539;SDS011;17321;46.312;4.776;2023-11-19T06:14:52;15.02;;;8.70;;
30539;SDS011;17321;46.312;4.776;2023-11-19T06:17:18;11.55;;;7.07;;
30539;SDS011;17321;46.312;4.776;2023-11-19T06:19:44;10.68;;;6.95;;
30539;SDS011;17321;46.312;4.776;2023-11-19T06:22:10;18.58;;;7.13;;
30539;SDS011;17321;46.312;4.776;2023-11-19T06:24:36;17.92;;;8.07;;
30539;SDS011;17321;46.312;4.776;2023-11-19T06:27:02;11.07;;;6.93;;
30539;SDS011;17321;46.312;4.776;2023-11-19T06:29:29;13.52;;;7.40;;
30539;SDS011;17321;46.312;4.776;2023-11-19T06:31:55;17.98;;;7.47;;
30539;SDS011;17321;46.312;4.776;2023-11-19T06:34:22;10.90;;;6.80;;
30539;SDS011;17321;46.312;4.776;2023-11-19T06:36:48;12.45;;;7.25;;
30539;SDS011;17321;46.312;4.776;2023-11-19T06:39:14;11.32;;;6.65;;
30539;SDS011;17321;46.312;4.776;2023-11-19T06:41:44;12.60;;;6.95;;
30539;SDS011;17321;46.312;4.776;2023-11-19T06:44:10;12.77;;;7.70;;
30539;SDS011;17321;46.312;4.776;2023-11-19T06:46:36;16.63;;;7.70;;
30539;SDS011;17321;46.312;4.776;2023-11-19T06:49:02;13.70;;;7.78;;
30539;SDS011;17321;46.312;4.776;2023-11-19T06:51:28;17.38;;;7.38;;
30539;SDS011;17321;46.312;4.776;2023-11-19T06:53:54;14.15;;;7.38;;
30539;SDS011;17321;46.312;4.776;2023-11-19T06:56:21;12.63;;;7.53;;
30539;SDS011;17321;46.312;4.776;2023-11-19T06:58:47;12.90;;;7.45;;
30539;SDS011;17321;46.312;4.776;2023-11-19T07:01:14;13.93;;;6.53;;
30539;SDS011;17321;46.312;4.776;2023-11-19T07:03:40;9.63;;;6.70;;
30539;SDS011;17321;46.312;4.776;2023-11-19T07:06:06;10.38;;;6.57;;
30539;SDS011;17321;46.312;4.776;2023-11-19T07:08:33;14.45;;;7.20;;
30539;SDS011;17321;46.312;4.776;2023-11-19T07:10:59;14.48;;;6.57;;
30539;SDS011;17321;46.312;4.776;2023-11-19T07:13:25;10.43;;;6.55;;
30539;SDS011;17321;46.312;4.776;2023-11-19T07:15:52;11.80;;;5.93;;
30539;SDS011;17321;46.312;4.776;2023-11-19T07:18:18;12.00;;;7.47;;
30539;SDS011;17321;46.312;4.776;2023-11-19T07:20:47;11.90;;;7.20;;
30539;SDS011;17321;46.312;4.776;2023-11-19T07:23:13;10.68;;;6.32;;
30539;SDS011;17321;46.312;4.776;2023-11-19T07:25:42;15.43;;;7.55;;
30539;SDS011;17321;46.312;4.776;2023-11-19T07:28:08;16.17;;;7.97;;
30539;SDS011;17321;46.312;4.776;2023-11-19T07:30:35;16.73;;;8.32;;
30539;SDS011;17321;46.312;4.776;2023-11-19T07:33:01;16.05;;;7.85;;
30539;SDS011;17321;46.312;4.776;2023-11-19T07:35:29;16.63;;;9.05;;
30539;SDS011;17321;46.312;4.776;2023-11-19T07:37:57;8.93;;;7.15;;
30539;SDS011;17321;46.312;4.776;2023-11-19T07:40:24;15.55;;;8.57;;
30539;SDS011;17321;46.312;4.776;2023-11-19T07:42:50;12.20;;;7.72;;
30539;SDS011;17321;46.312;4.776;2023-11-19T07:45:16;15.65;;;6.55;;
30539;SDS011;17321;46.312;4.776;2023-11-19T07:47:42;8.93;;;5.70;;
30539;SDS011;17321;46.312;4.776;2023-11-19T07:50:11;14.65;;;6.43;;
30539;SDS011;17321;46.312;4.776;2023-11-19T07:52:39;14.10;;;7.55;;
30539;SDS011;17321;46.312;4.776;2023-11-19T07:55:05;12.82;;;7.72;;
30539;SDS011;17321;46.312;4.776;2023-11-19T07:57:31;16.08;;;7.00;;
30539;SDS011;17321;46.312;4.776;2023-11-19T07:59:57;9.07;;;5.88;;
30539;SDS011;17321;46.312;4.776;2023-11-19T08:02:23;12.93;;;7.00;;
30539;SDS011;17321;46.312;4.776;2023-11-19T08:04:49;9.32;;;5.38;;
30539;SDS011;17321;46.312;4.776;2023-11-19T08:07:17;10.13;;;5.75;;
30539;SDS011;17321;46.312;4.776;2023-11-19T08:09:44;8.82;;;5.88;;
30539;SDS011;17321;46.312;4.776;2023-11-19T08:12:10;10.30;;;5.38;;
30539;SDS011;17321;46.312;4.776;2023-11-19T08:14:36;14.82;;;7.70;;
30539;SDS011;17321;46.312;4.776;2023-11-19T08:17:02;12.13;;;6.72;;
30539;SDS011;17321;46.312;4.776;2023-11-19T08:19:28;9.05;;;6.38;;
30539;SDS011;17321;46.312;4.776;2023-11-19T08:21:54;9.30;;;5.63;;
30539;SDS011;17321;46.312;4.776;2023-11-19T08:24:21;8.10;;;5.80;;
30539;SDS011;17321;46.312;4.776;2023-11-19T08:26:47;9.63;;;6.30;;
30539;SDS011;17321;46.312;4.776;2023-11-19T08:29:14;13.63;;;5.95;;
30539;SDS011;17321;46.312;4.776;2023-11-19T08:31:40;12.05;;;6.05;;
30539;SDS011;17321;46.312;4.776;2023-11-19T08:34:06;7.90;;;5.85;;
30539;SDS011;17321;46.312;4.776;2023-11-19T08:36:34;8.63;;;5.85;;
30539;SDS011;17321;46.312;4.776;2023-11-19T08:39:00;19.50;;;6.78;;
30539;SDS011;17321;46.312;4.776;2023-11-19T08:41:25;9.25;;;5.93;;
30539;SDS011;17321;46.312;4.776;2023-11-19T08:43:52;12.38;;;5.85;;
30539;SDS011;17321;46.312;4.776;2023-11-19T08:46:18;11.48;;;5.80;;
30539;SDS011;17321;46.312;4.776;2023-11-19T08:48:44;8.27;;;5.55;;
30539;SDS011;17321;46.312;4.776;2023-11-19T08:51:11;8.15;;;5.90;;
30539;SDS011;17321;46.312;4.776;2023-11-19T08:53:37;7.93;;;5.80;;
30539;SDS011;17321;46.312;4.776;2023-11-19T08:56:03;11.27;;;6.28;;
30539;SDS011;17321;46.312;4.776;2023-11-19T08:58:30;9.75;;;5.80;;
30539;SDS011;17321;46.312;4.776;2023-11-19T09:00:56;10.65;;;6.57;;
30539;SDS011;17321;46.312;4.776;2023-11-19T09:03:23;16.88;;;5.80;;
30539;SDS011;17321;46.312;4.776;2023-11-19T09:05:51;6.67;;;5.07;;
30539;SDS011;17321;46.312;4.776;2023-11-19T09:08:17;10.73;;;5.70;;
30539;SDS011;17321;46.312;4.776;2023-11-19T09:10:43;10.23;;;5.50;;
30539;SDS011;17321;46.312;4.776;2023-11-19T09:13:09;9.57;;;5.20;;
30539;SDS011;17321;46.312;4.776;2023-11-19T09:15:35;10.23;;;5.45;;
30539;SDS011;17321;46.312;4.776;2023-11-19T09:18:01;11.57;;;5.78;;
30539;SDS011;17321;46.312;4.776;2023-11-19T09:20:27;9.88;;;5.57;;
30539;SDS011;17321;46.312;4.776;2023-11-19T09:22:57;8.93;;;5.40;;
30539;SDS011;17321;46.312;4.776;2023-11-19T09:25:23;9.05;;;5.13;;
30539;SDS011;17321;46.312;4.776;2023-11-19T09:27:49;10.82;;;4.93;;
30539;SDS011;17321;46.312;4.776;2023-11-19T09:30:15;9.13;;;5.30;;
30539;SDS011;17321;46.312;4.776;2023-11-19T09:32:41;8.38;;;4.95;;
30539;SDS011;17321;46.312;4.776;2023-11-19T09:35:07;15.38;;;6.95;;
30539;SDS011;17321;46.312;4.776;2023-11-19T09:37:33;17.15;;;6.25;;
30539;SDS011;17321;46.312;4.776;2023-11-19T09:39:59;8.32;;;5.97;;
30539;SDS011;17321;46.312;4.776;2023-11-19T09:42:25;15.40;;;6.40;;
30539;SDS011;17321;46.312;4.776;2023-11-19T09:44:51;8.88;;;5.43;;
30539;SDS011;17321;46.312;4.776;2023-11-19T09:47:19;8.05;;;5.15;;
30539;SDS011;17321;46.312;4.776;2023-11-19T09:49:46;10.13;;;5.88;;
30539;SDS011;17321;46.312;4.776;2023-11-19T09:52:12;10.85;;;6.03;;
30539;SDS011;17321;46.312;4.776;2023-11-19T09:54:38;10.32;;;5.65;;
30539;SDS011;17321;46.312;4.776;2023-11-19T09:57:05;13.77;;;6.07;;
30539;SDS011;17321;46.312;4.776;2023-11-19T09:59:34;5.55;;;4.85;;
30539;SDS011;17321;46.312;4.776;2023-11-19T10:02:00;9.43;;;5.95;;
30539;SDS011;17321;46.312;4.776;2023-11-19T10:04:29;11.52;;;5.82;;
30539;SDS011;17321;46.312;4.776;2023-11-19T10:06:56;11.73;;;4.88;;
30539;SDS011;17321;46.312;4.776;2023-11-19T10:09:22;7.03;;;5.22;;
30539;SDS011;17321;46.312;4.776;2023-11-19T10:11:48;9.75;;;5.68;;
30539;SDS011;17321;46.312;4.776;2023-11-19T10:14:15;13.23;;;5.40;;
30539;SDS011;17321;46.312;4.776;2023-11-19T10:16:41;5.78;;;4.78;;
30539;SDS011;17321;46.312;4.776;2023-11-19T10:19:07;7.47;;;5.45;;
30539;SDS011;17321;46.312;4.776;2023-11-19T10:21:33;9.45;;;5.38;;
30539;SDS011;17321;46.312;4.776;2023-11-19T10:23:59;10.38;;;5.70;;
30539;SDS011;17321;46.312;4.776;2023-11-19T10:26:26;10.93;;;5.80;;
30539;SDS011;17321;46.312;4.776;2023-11-19T10:28:52;11.20;;;6.13;;
30539;SDS011;17321;46.312;4.776;2023-11-19T10:31:19;6.35;;;5.00;;
30539;SDS011;17321;46.312;4.776;2023-11-19T10:33:49;13.25;;;5.50;;
30539;SDS011;17321;46.312;4.776;2023-11-19T10:36:16;9.70;;;5.10;;
30539;SDS011;17321;46.312;4.776;2023-11-19T10:38:55;7.80;;;5.28;;
30539;SDS011;17321;46.312;4.776;2023-11-19T10:41:28;10.27;;;5.93;;
30539;SDS011;17321;46.312;4.776;2023-11-19T10:43:55;11.20;;;5.47;;
30539;SDS011;17321;46.312;4.776;2023-11-19T10:46:21;9.90;;;5.60;;
30539;SDS011;17321;46.312;4.776;2023-11-19T10:48:48;17.10;;;5.82;;
30539;SDS011;17321;46.312;4.776;2023-11-19T10:51:16;11.63;;;6.28;;
30539;SDS011;17321;46.312;4.776;2023-11-19T10:53:47;15.60;;;7.28;;
30539;SDS011;17321;46.312;4.776;2023-11-19T10:56:15;14.65;;;7.75;;
30539;SDS011;17321;46.312;4.776;2023-11-19T10:58:44;15.77;;;8.07;;
30539;SDS011;17321;46.312;4.776;2023-11-19T11:01:16;14.57;;;8.18;;
30539;SDS011;17321;46.312;4.776;2023-11-19T11:03:44;17.50;;;11.15;;
30539;SDS011;17321;46.312;4.776;2023-11-19T11:06:11;19.35;;;10.70;;
30539;SDS011;17321;46.312;4.776;2023-11-19T11:08:38;16.08;;;10.35;;
30539;SDS011;17321;46.312;4.776;2023-11-19T11:11:04;18.90;;;11.25;;
30539;SDS011;17321;46.312;4.776;2023-11-19T11:13:31;16.80;;;10.25;;
30539;SDS011;17321;46.312;4.776;2023-11-19T11:15:57;15.75;;;8.93;;
30539;SDS011;17321;46.312;4.776;2023-11-19T11:18:24;16.25;;;8.85;;
30539;SDS011;17321;46.312;4.776;2023-11-19T11:20:51;10.80;;;8.60;;
30539;SDS011;17321;46.312;4.776;2023-11-19T11:36:36;13.65;;;9.27;;
30539;SDS011;17321;46.312;4.776;2023-11-19T11:39:07;13.20;;;8.07;;
30539;SDS011;17321;46.312;4.776;2023-11-19T11:41:34;19.85;;;11.20;;
30539;SDS011;17321;46.312;4.776;2023-11-19T11:44:00;16.77;;;10.15;;
30539;SDS011;17321;46.312;4.776;2023-11-19T11:49:00;16.83;;;9.35;;
30539;SDS011;17321;46.312;4.776;2023-11-19T11:52:09;13.13;;;8.00;;
30539;SDS011;17321;46.312;4.776;2023-11-19T12:02:08;16.73;;;12.38;;
30539;SDS011;17321;46.312;4.776;2023-11-19T12:04:34;15.80;;;8.77;;
30539;SDS011;17321;46.312;4.776;2023-11-19T12:07:04;10.65;;;7.93;;
30539;SDS011;17321;46.312;4.776;2023-11-19T12:09:31;14.07;;;8.38;;
30539;SDS011;17321;46.312;4.776;2023-11-19T12:19:59;13.55;;;9.52;;
30539;SDS011;17321;46.312;4.776;2023-11-19T12:22:25;16.00;;;10.80;;
30539;SDS011;17321;46.312;4.776;2023-11-19T12:24:54;16.30;;;9.40;;
30539;SDS011;17321;46.312;4.776;2023-11-19T12:27:20;14.50;;;9.13;;
30539;SDS011;17321;46.312;4.776;2023-11-19T12:29:51;13.50;;;8.25;;
30539;SDS011;17321;46.312;4.776;2023-11-19T12:32:17;13.68;;;8.73;;
30539;SDS011;17321;46.312;4.776;2023-11-19T12:34:44;12.95;;;8.43;;
30539;SDS011;17321;46.312;4.776;2023-11-19T12:37:10;11.80;;;8.13;;
30539;SDS011;17321;46.312;4.776;2023-11-19T12:39:36;10.48;;;7.30;;
30539;SDS011;17321;46.312;4.776;2023-11-19T12:42:02;9.45;;;7.60;;
30539;SDS011;17321;46.312;4.776;2023-11-19T12:44:28;14.73;;;7.80;;
30539;SDS011;17321;46.312;4.776;2023-11-19T12:47:07;12.90;;;6.85;;
30539;SDS011;17321;46.312;4.776;2023-11-19T12:49:36;13.40;;;7.03;;
30539;SDS011;17321;46.312;4.776;2023-11-19T12:52:02;13.07;;;7.40;;
30539;SDS011;17321;46.312;4.776;2023-11-19T12:54:37;11.40;;;6.93;;
30539;SDS011;17321;46.312;4.776;2023-11-19T12:57:04;14.32;;;6.43;;
30539;SDS011;17321;46.312;4.776;2023-11-19T12:59:30;9.80;;;6.55;;
30539;SDS011;17321;46.312;4.776;2023-11-19T13:01:57;8.60;;;5.68;;
30539;SDS011;17321;46.312;4.776;2023-11-19T13:04:23;12.80;;;6.90;;
30539;SDS011;17321;46.312;4.776;2023-11-19T13:06:53;9.95;;;6.10;;
30539;SDS011;17321;46.312;4.776;2023-11-19T13:09:22;13.73;;;6.82;;
30539;SDS011;17321;46.312;4.776;2023-11-19T13:11:52;10.75;;;6.90;;
30539;SDS011;17321;46.312;4.776;2023-11-19T13:14:18;12.25;;;6.38;;
30539;SDS011;17321;46.312;4.776;2023-11-19T13:16:44;12.13;;;7.57;;
30539;SDS011;17321;46.312;4.776;2023-11-19T13:19:11;10.00;;;7.22;;
30539;SDS011;17321;46.312;4.776;2023-11-19T13:21:38;12.55;;;6.70;;
30539;SDS011;17321;46.312;4.776;2023-11-19T13:24:05;12.82;;;7.20;;
30539;SDS011;17321;46.312;4.776;2023-11-19T13:26:31;10.80;;;7.40;;
30539;SDS011;17321;46.312;4.776;2023-11-19T13:28:57;13.40;;;7.28;;
30539;SDS011;17321;46.312;4.776;2023-11-19T13:31:23;12.18;;;7.32;;
30539;SDS011;17321;46.312;4.776;2023-11-19T13:33:49;11.07;;;6.47;;
30539;SDS011;17321;46.312;4.776;2023-11-19T13:36:15;14.98;;;8.00;;
30539;SDS011;17321;46.312;4.776;2023-11-19T13:38:41;14.35;;;8.50;;
30539;SDS011;17321;46.312;4.776;2023-11-19T13:41:09;17.42;;;8.48;;
30539;SDS011;17321;46.312;4.776;2023-11-19T13:43:36;12.43;;;8.55;;
30539;SDS011;17321;46.312;4.776;2023-11-19T13:46:02;14.55;;;7.85;;
30539;SDS011;17321;46.312;4.776;2023-11-19T13:48:28;13.05;;;7.97;;
30539;SDS011;17321;46.312;4.776;2023-11-19T13:50:55;12.23;;;7.47;;
30539;SDS011;17321;46.312;4.776;2023-11-19T13:53:21;13.95;;;8.05;;
30539;SDS011;17321;46.312;4.776;2023-11-19T13:55:50;11.35;;;6.80;;
30539;SDS011;17321;46.312;4.776;2023-11-19T13:58:18;11.32;;;6.68;;
30539;SDS011;17321;46.312;4.776;2023-11-19T14:00:44;12.23;;;7.93;;
30539;SDS011;17321;46.312;4.776;2023-11-19T14:03:10;15.10;;;8.27;;
30539;SDS011;17321;46.312;4.776;2023-11-19T14:05:36;13.15;;;7.63;;
30539;SDS011;17321;46.312;4.776;2023-11-19T14:08:02;10.38;;;6.68;;
30539;SDS011;17321;46.312;4.776;2023-11-19T14:10:36;14.60;;;8.32;;
30539;SDS011;17321;46.312;4.776;2023-11-19T14:13:04;13.73;;;7.75;;
30539;SDS011;17321;46.312;4.776;2023-11-19T14:15:30;12.63;;;7.68;;
30539;SDS011;17321;46.312;4.776;2023-11-19T14:17:56;20.38;;;12.77;;
30539;SDS011;17321;46.312;4.776;2023-11-19T14:20:22;12.05;;;8.00;;
30539;SDS011;17321;46.312;4.776;2023-11-19T14:22:48;15.88;;;9.23;;
30539;SDS011;17321;46.312;4.776;2023-11-19T14:25:15;13.75;;;8.60;;
30539;SDS011;17321;46.312;4.776;2023-11-19T14:27:42;15.93;;;8.63;;
30539;SDS011;17321;46.312;4.776;2023-11-19T14:30:09;8.68;;;6.95;;
30539;SDS011;17321;46.312;4.776;2023-11-19T14:32:38;17.95;;;12.25;;
30539;SDS011;17321;46.312;4.776;2023-11-19T14:35:05;16.55;;;9.45;;
30539;SDS011;17321;46.312;4.776;2023-11-19T14:37:31;15.20;;;7.65;;
30539;SDS011;17321;46.312;4.776;2023-11-19T14:39:57;18.63;;;7.78;;
30539;SDS011;17321;46.312;4.776;2023-11-19T14:42:24;11.13;;;7.57;;
30539;SDS011;17321;46.312;4.776;2023-11-19T14:47:19;10.57;;;6.25;;
30539;SDS011;17321;46.312;4.776;2023-11-19T14:49:45;10.48;;;6.50;;
30539;SDS011;17321;46.312;4.776;2023-11-19T14:52:11;11.55;;;6.97;;
30539;SDS011;17321;46.312;4.776;2023-11-19T14:54:38;14.07;;;6.97;;
30539;SDS011;17321;46.312;4.776;2023-11-19T14:57:04;12.48;;;7.20;;
30539;SDS011;17321;46.312;4.776;2023-11-19T14:59:31;9.75;;;6.95;;
30539;SDS011;17321;46.312;4.776;2023-11-19T15:01:58;7.85;;;6.18;;
30539;SDS011;17321;46.312;4.776;2023-11-19T15:04:25;13.48;;;7.65;;
30539;SDS011;17321;46.312;4.776;2023-11-19T15:06:51;12.65;;;6.97;;
30539;SDS011;17321;46.312;4.776;2023-11-19T15:09:18;13.25;;;7.07;;
30539;SDS011;17321;46.312;4.776;2023-11-19T15:11:46;10.90;;;6.35;;